Time;durP1;ratioP1;P1;durP2;ratioP2;P2;SDS_P1;SDS_P2;PMS_P1;PMS_P2;Temp;Humidity;BMP_temperature;BMP_pressure;BME280_temperature;BME280_humidity;BME280_pressure;Samples;Min_cycle;Max_cycle;Signal;HPM_P1;HPM_P2
2021/11/13 00:00:22;;;;;;;28.88;19.10;;;5.00;87.20;;;3.02;100.00;96015.25;4974803;28;20117;-65
2021/11/13 00:02:48;;;;;;;30.77;18.23;;;4.90;87.40;;;3.01;100.00;96012.81;4974582;28;20514;-66
2021/11/13 00:05:14;;;;;;;27.17;18.75;;;4.90;87.30;;;2.99;100.00;96010.34;4957696;28;20046;-66
2021/11/13 00:07:40;;;;;;;30.63;18.75;;;5.00;87.50;;;2.99;100.00;96015.56;4998991;28;20061;-66
2021/11/13 00:10:07;;;;;;;27.98;18.20;;;4.90;87.40;;;2.96;100.00;96018.44;4957063;28;20069;-65
2021/11/13 00:12:33;;;;;;;25.80;18.08;;;4.90;87.30;;;2.98;100.00;96008.72;4992448;28;20034;-66
2021/11/13 00:15:06;;;;;;;31.77;18.70;;;5.00;87.20;;;2.99;100.00;96010.34;4957900;28;20524;-66
2021/11/13 00:17:32;;;;;;;28.55;17.73;;;5.00;87.20;;;3.01;100.00;96003.22;4955918;28;20041;-66
2021/11/13 00:19:57;;;;;;;29.88;18.98;;;5.10;87.10;;;3.03;100.00;96006.50;4988934;28;20030;-66
2021/11/13 00:22:23;;;;;;;28.45;17.58;;;5.10;87.20;;;3.01;100.00;96003.22;4973087;28;20043;-66
2021/11/13 00:24:49;;;;;;;27.63;18.80;;;5.00;87.30;;;3.03;100.00;96003.09;4990548;28;20089;-66
2021/11/13 00:27:15;;;;;;;27.85;18.25;;;5.10;87.20;;;3.06;100.00;96000.19;4973597;28;20042;-66
2021/11/13 00:29:40;;;;;;;33.63;19.35;;;5.10;87.10;;;3.07;100.00;96002.66;4973452;28;20040;-66
2021/11/13 00:32:07;;;;;;;30.38;17.65;;;5.10;87.10;;;3.09;100.00;96005.09;4956757;28;20546;-66
2021/11/13 00:34:33;;;;;;;29.63;19.55;;;5.10;87.10;;;3.11;100.00;96002.34;4989639;28;20039;-66
2021/11/13 00:36:58;;;;;;;46.10;20.67;;;5.20;87.00;;;3.08;100.00;96001.69;4956155;28;20069;-66
2021/11/13 00:39:24;;;;;;;38.35;21.13;;;5.10;87.50;;;3.08;100.00;96001.69;4972307;28;20038;-66
2021/11/13 00:41:50;;;;;;;36.30;20.67;;;5.10;87.40;;;3.08;100.00;95993.88;4972928;28;20034;-66
2021/11/13 00:44:16;;;;;;;50.58;22.25;;;5.10;87.60;;;3.05;100.00;95998.56;4966887;28;20031;-66
2021/11/13 00:46:42;;;;;;;63.65;20.80;;;5.00;87.90;;;3.02;100.00;96007.47;4995578;28;20513;-67
2021/11/13 00:49:08;;;;;;;52.03;22.65;;;4.90;88.00;;;3.04;100.00;96002.94;4973250;28;20040;-66
2021/11/13 00:51:34;;;;;;;43.83;21.38;;;5.00;87.80;;;3.01;100.00;96003.22;4973077;28;20034;-66
2021/11/13 00:54:00;;;;;;;45.13;21.20;;;5.00;88.00;;;3.01;100.00;96005.00;5003852;28;20092;-65
2021/11/13 00:56:25;;;;;;;79.57;22.23;;;4.90;88.20;;;2.97;100.00;96001.88;4999469;28;20129;-65
2021/11/13 00:58:51;;;;;;;55.72;22.88;;;4.80;88.30;;;2.95;100.00;95998.63;4983609;28;20041;-65
2021/11/13 01:01:17;;;;;;;58.75;21.67;;;4.80;88.60;;;2.95;100.00;95987.41;4960350;28;20031;-66
2021/11/13 01:03:43;;;;;;;57.03;23.33;;;4.90;88.50;;;2.94;100.00;95991.78;4970191;28;20106;-66
2021/11/13 01:06:09;;;;;;;38.33;23.00;;;4.80;88.60;;;2.94;100.00;95991.78;4968824;28;20053;-66
2021/11/13 01:08:35;;;;;;;55.75;22.50;;;4.90;88.70;;;2.95;100.00;95988.22;4989139;28;20045;-66
2021/11/13 01:11:00;;;;;;;50.33;23.77;;;4.90;88.50;;;2.96;100.00;95987.25;4945325;28;20038;-66
2021/11/13 01:13:26;;;;;;;67.55;23.50;;;5.00;88.60;;;2.99;100.00;95993.94;4986092;28;20060;-66
2021/11/13 01:15:52;;;;;;;49.70;22.75;;;5.00;88.30;;;2.99;100.00;95989.56;4962693;28;20498;-66
2021/11/13 01:18:18;;;;;;;50.15;23.80;;;5.00;88.40;;;2.98;100.00;95987.94;4965241;28;20575;-66
2021/11/13 01:20:44;;;;;;;89.07;23.92;;;5.00;88.40;;;3.02;100.00;95983.25;4972836;28;20129;-66
2021/11/13 01:23:09;;;;;;;60.25;23.60;;;5.10;88.10;;;3.03;100.00;95980.50;4972549;28;20573;-66
2021/11/13 01:25:35;;;;;;;88.68;23.55;;;5.10;88.00;;;3.06;100.00;95979.41;5004811;28;20220;-66
2021/11/13 01:28:01;;;;;;;40.28;22.58;;;5.10;87.90;;;3.07;100.00;95975.84;4995612;28;20096;-66
2021/11/13 01:30:27;;;;;;;102.07;23.90;;;5.20;88.00;;;3.08;100.00;95973.09;4971974;28;20053;-66
2021/11/13 01:32:53;;;;;;;90.63;24.35;;;5.10;88.00;;;3.11;100.00;95971.16;4956420;28;20034;-66
2021/11/13 01:35:19;;;;;;;56.50;24.55;;;5.20;87.90;;;3.14;100.00;95963.06;4982737;28;20046;-66
2021/11/13 01:37:44;;;;;;;41.78;23.20;;;5.20;87.80;;;3.14;100.00;95965.66;4972336;28;20038;-66
2021/11/13 01:40:14;;;;;;;50.22;24.30;;;5.20;87.90;;;3.16;100.00;95963.75;4983946;28;20054;-66
2021/11/13 01:42:40;;;;;;;39.03;22.90;;;5.20;87.90;;;3.18;100.00;95961.84;4937766;28;20050;-67
2021/11/13 01:45:06;;;;;;;44.70;23.45;;;5.30;88.00;;;3.21;100.00;95961.53;4948284;28;20030;-66
2021/11/13 01:47:32;;;;;;;113.40;24.08;;;5.30;87.90;;;3.20;100.00;95959.91;4980874;28;20054;-66
2021/11/13 01:49:58;;;;;;;63.33;24.27;;;5.20;87.70;;;3.20;100.00;95965.13;4940306;28;20623;-66
2021/11/13 01:52:24;;;;;;;103.38;23.65;;;5.20;88.10;;;3.22;100.00;95968.38;4988683;28;20026;-66
2021/11/13 01:54:50;;;;;;;132.20;25.08;;;5.30;87.80;;;3.19;100.00;95959.09;4982774;28;20042;-66
2021/11/13 01:57:23;;;;;;;67.63;23.65;;;5.10;88.20;;;3.20;100.00;95965.13;4988204;28;20053;-66
2021/11/13 01:59:51;;;;;;;182.63;27.10;;;5.20;88.30;;;3.20;100.00;95970.31;4972077;28;20050;-66
2021/11/13 02:02:16;;;;;;;44.10;24.23;;;5.10;88.10;;;3.19;100.00;95961.69;4961572;28;20534;-68
2021/11/13 02:04:42;;;;;;;170.60;28.35;;;5.20;88.50;;;3.18;100.00;95960.06;4987802;28;20038;-67
2021/11/13 02:07:08;;;;;;;68.22;25.13;;;5.10;88.30;;;3.19;100.00;95958.28;4989630;28;20030;-67
2021/11/13 02:09:34;;;;;;;53.78;25.15;;;5.20;88.40;;;3.19;100.00;95953.09;5002132;28;20054;-67
2021/11/13 02:11:59;;;;;;;60.67;26.48;;;5.20;88.30;;;3.20;100.00;95960.72;4989116;28;20045;-66
2021/11/13 02:14:29;;;;;;;54.33;23.60;;;5.30;88.30;;;3.17;100.00;95965.38;4987447;28;20523;-67
2021/11/13 02:16:54;;;;;;;56.42;23.17;;;5.10;87.70;;;3.12;100.00;95957.22;4964732;28;20030;-66
2021/11/13 02:19:20;;;;;;;66.90;22.80;;;5.10;88.00;;;3.08;100.00;95965.31;4971710;28;20509;-66
2021/11/13 02:21:46;;;;;;;92.80;23.10;;;5.00;88.20;;;3.03;100.00;95959.72;4988057;28;20027;-67
2021/11/13 02:24:12;;;;;;;67.72;23.63;;;4.90;88.00;;;3.00;100.00;95965.22;4971647;28;20522;-67
2021/11/13 02:26:38;;;;;;;115.53;22.95;;;4.90;88.00;;;2.99;100.00;95957.56;4971892;28;20514;-66
2021/11/13 02:29:04;;;;;;;50.42;22.13;;;4.90;88.00;;;2.98;100.00;95961.97;4955450;28;20042;-67
2021/11/13 02:31:40;;;;;;;68.60;23.63;;;5.00;88.00;;;2.99;100.00;95962.78;4986508;28;20041;-66
2021/11/13 02:34:07;;;;;;;69.15;22.75;;;5.10;87.90;;;3.03;100.00;95964.94;4984268;28;20104;-66
2021/11/13 02:36:33;;;;;;;49.65;22.67;;;5.10;87.70;;;3.05;100.00;95962.19;4987494;28;20454;-66
2021/11/13 02:38:59;;;;;;;40.78;22.52;;;5.10;87.60;;;3.04;100.00;95956.16;4984684;28;20085;-66
2021/11/13 02:41:27;;;;;;;63.15;23.10;;;5.20;87.60;;;3.06;100.00;95958.63;4989781;28;20038;-67
2021/11/13 02:43:53;;;;;;;34.28;20.80;;;5.10;87.50;;;3.07;100.00;95947.25;4991132;28;20062;-66
2021/11/13 02:46:19;;;;;;;29.80;20.98;;;5.20;87.10;;;3.06;100.00;95949.03;4959433;28;20088;-67
2021/11/13 02:48:45;;;;;;;31.65;21.10;;;5.10;86.80;;;3.08;100.00;95957.50;4991427;28;20034;-67
2021/11/13 02:51:11;;;;;;;33.53;20.95;;;5.10;86.80;;;3.08;100.00;95960.09;4991249;28;20037;-67
2021/11/13 02:53:38;;;;;;;34.83;20.45;;;5.10;86.80;;;3.10;100.00;95969.53;4997443;28;20061;-66
2021/11/13 02:56:07;;;;;;;40.53;21.02;;;5.20;86.70;;;3.11;100.00;95963.38;4958258;28;20038;-66
2021/11/13 02:58:33;;;;;;;37.45;21.73;;;5.20;86.60;;;3.12;100.00;95967.59;4968319;28;20035;-66
2021/11/13 03:01:03;;;;;;;38.88;20.52;;;5.20;86.60;;;3.12;100.00;95968.41;4991444;28;20038;-66
2021/11/13 03:03:29;;;;;;;40.38;22.00;;;5.20;86.50;;;3.11;100.00;95965.97;4975911;28;20122;-66
2021/11/13 03:05:57;;;;;;;50.90;22.17;;;5.20;86.40;;;3.11;100.00;95971.16;4990531;28;20042;-66
2021/11/13 03:08:25;;;;;;;44.65;22.35;;;5.20;86.40;;;3.11;100.00;95971.16;4982023;28;20478;-66
2021/11/13 03:10:51;;;;;;;50.33;22.00;;;5.10;86.70;;;3.10;100.00;95965.16;4963086;28;20521;-66
2021/11/13 03:13:17;;;;;;;57.88;22.33;;;5.10;86.50;;;3.10;100.00;95969.53;4974718;28;20042;-66
2021/11/13 03:15:43;;;;;;;37.90;22.67;;;5.20;86.50;;;3.10;100.00;95975.53;4994218;28;20062;-66
2021/11/13 03:18:09;;;;;;;33.67;21.88;;;5.20;86.30;;;3.12;100.00;95972.81;4983835;28;20137;-66
2021/11/13 03:20:35;;;;;;;34.40;21.02;;;5.30;86.30;;;3.12;100.00;95968.41;4990480;28;20073;-66
2021/11/13 03:23:01;;;;;;;37.60;20.70;;;5.20;86.20;;;3.11;100.00;95966.78;4989560;28;20031;-66
2021/11/13 03:25:36;;;;;;;38.45;20.67;;;5.20;86.20;;;3.07;100.00;95961.06;5004525;28;20070;-67
2021/11/13 03:28:05;;;;;;;60.35;18.70;;;5.10;86.30;;;3.06;100.00;95962.03;4991402;28;20031;-66
2021/11/13 03:30:30;;;;;;;35.40;17.80;;;5.10;86.20;;;3.05;100.00;95965.59;4959032;28;20034;-66
2021/11/13 03:32:56;;;;;;;33.58;19.33;;;5.10;86.30;;;3.05;100.00;95956.97;4958839;28;20053;-66
2021/11/13 03:35:29;;;;;;;65.55;19.10;;;5.10;86.40;;;3.04;100.00;95961.38;4967792;28;20190;-66
2021/11/13 03:38:10;;;;;;;73.20;19.33;;;5.10;86.50;;;3.03;100.00;95959.72;4976406;28;20502;-66
2021/11/13 03:40:37;;;;;;;43.33;18.27;;;5.10;86.30;;;3.01;100.00;95950.44;5007301;28;20513;-67
2021/11/13 03:43:03;;;;;;;30.55;18.23;;;5.10;86.40;;;2.96;100.00;95948.28;4973059;28;20041;-66
2021/11/13 03:45:29;;;;;;;28.55;19.13;;;5.10;86.20;;;2.98;100.00;95956.75;4952617;28;20034;-67
2021/11/13 03:47:55;;;;;;;38.40;18.40;;;5.10;86.30;;;2.99;100.00;95957.56;4970371;28;20502;-67
2021/11/13 03:50:21;;;;;;;51.63;18.67;;;5.10;86.30;;;2.99;100.00;95948.00;4954863;28;20510;-67
2021/11/13 03:52:47;;;;;;;39.75;18.92;;;5.10;86.20;;;2.99;100.00;95953.19;4967712;28;20121;-66
2021/11/13 03:55:12;;;;;;;31.83;19.38;;;5.10;86.20;;;2.99;100.00;95952.38;4992465;28;20082;-66
2021/11/13 03:57:38;;;;;;;32.40;19.13;;;5.10;86.30;;;2.99;100.00;95953.19;4951526;28;20069;-66
2021/11/13 04:00:06;;;;;;;35.05;19.63;;;5.10;86.10;;;2.97;100.00;95959.50;4973273;28;20113;-66
2021/11/13 04:02:31;;;;;;;29.85;19.45;;;5.10;86.00;;;2.97;100.00;95968.13;4989300;28;20038;-67
2021/11/13 04:04:57;;;;;;;35.55;18.55;;;5.10;86.20;;;2.96;100.00;95969.06;4969315;28;20078;-67
2021/11/13 04:07:23;;;;;;;32.92;19.80;;;5.10;86.20;;;2.94;100.00;95976.19;4963691;28;20035;-67
2021/11/13 04:09:49;;;;;;;34.47;19.70;;;5.10;86.20;;;2.96;100.00;95982.06;4967890;28;20065;-66
2021/11/13 04:12:14;;;;;;;33.40;19.30;;;5.10;86.10;;;2.95;100.00;95983.03;4985967;28;20348;-64
2021/11/13 04:14:41;;;;;;;36.88;19.80;;;5.10;86.00;;;2.96;100.00;95989.03;4963076;28;20054;-65
2021/11/13 04:17:07;;;;;;;36.65;21.52;;;5.10;86.00;;;2.95;100.00;95990.81;4988295;28;20093;-66
2021/11/13 04:19:33;;;;;;;31.88;20.63;;;5.10;86.20;;;2.95;100.00;95990.00;4973222;28;20728;-67
2021/11/13 04:21:59;;;;;;;30.58;20.10;;;5.10;86.30;;;2.94;100.00;96001.34;4962651;28;20101;-66
2021/11/13 04:24:24;;;;;;;41.65;19.55;;;5.10;86.10;;;2.92;100.00;95993.69;4959328;28;20081;-67
2021/11/13 04:26:50;;;;;;;29.52;19.13;;;5.10;85.90;;;2.93;100.00;95997.91;4991241;28;20053;-67
2021/11/13 04:29:16;;;;;;;35.50;19.25;;;5.10;85.90;;;2.93;100.00;96000.53;4971678;28;20063;-67
2021/11/13 04:31:42;;;;;;;36.13;19.50;;;5.00;85.80;;;2.93;100.00;96000.53;4938684;28;20523;-67
2021/11/13 04:34:13;;;;;;;35.15;19.85;;;5.10;85.80;;;2.94;100.00;95993.53;4955600;28;20031;-67
2021/11/13 04:36:43;;;;;;;33.88;20.17;;;5.10;85.60;;;2.94;100.00;95996.97;4985755;28;20118;-67
2021/11/13 04:39:10;;;;;;;33.03;19.50;;;5.10;85.60;;;2.95;100.00;95998.63;4985979;28;20042;-69
2021/11/13 04:41:36;;;;;;;40.33;19.77;;;5.10;85.60;;;2.95;100.00;96001.22;4971745;28;20096;-67
2021/11/13 04:44:02;;;;;;;36.47;21.48;;;5.10;85.70;;;2.95;100.00;96009.00;4956293;28;20108;-67
2021/11/13 04:46:28;;;;;;;46.83;21.52;;;5.10;85.80;;;2.96;100.00;96005.44;4978468;28;20039;-67
2021/11/13 04:48:55;;;;;;;39.33;20.80;;;5.10;85.40;;;2.95;100.00;96003.81;4956804;28;20126;-67
2021/11/13 04:51:21;;;;;;;38.35;19.98;;;5.10;85.50;;;2.95;100.00;96010.78;4939249;28;20054;-66
2021/11/13 04:53:47;;;;;;;36.58;20.10;;;5.10;85.40;;;2.92;100.00;96017.06;4988128;28;20502;-67
2021/11/13 04:56:12;;;;;;;39.47;20.65;;;5.00;85.60;;;2.91;100.00;96020.63;4972163;28;20061;-67
2021/11/13 04:58:38;;;;;;;39.38;22.02;;;5.10;85.50;;;2.90;100.00;96026.78;4988798;28;20112;-66
2021/11/13 05:01:04;;;;;;;39.35;20.67;;;5.10;85.50;;;2.89;100.00;96025.16;4988789;28;20081;-66
2021/11/13 05:03:30;;;;;;;32.45;18.77;;;5.10;85.50;;;2.89;100.00;96022.56;4972084;28;20092;-67
2021/11/13 05:05:56;;;;;;;29.90;19.08;;;5.00;85.30;;;2.92;100.00;96016.25;4974382;28;20035;-65
2021/11/13 05:08:22;;;;;;;34.13;19.55;;;5.10;85.30;;;2.92;100.00;96024.03;4937454;28;20105;-67
2021/11/13 05:10:51;;;;;;;45.67;19.90;;;5.10;85.20;;;2.91;100.00;96023.22;4968418;28;20525;-67
2021/11/13 05:13:18;;;;;;;32.53;20.42;;;5.10;85.20;;;2.92;100.00;96027.47;4973198;28;20495;-67
2021/11/13 05:15:44;;;;;;;33.95;19.88;;;5.10;85.30;;;2.93;100.00;96025.69;4972577;28;20121;-66
2021/11/13 05:18:10;;;;;;;38.50;19.98;;;5.10;85.30;;;2.92;100.00;96022.25;4986991;28;20062;-67
2021/11/13 05:20:36;;;;;;;46.63;23.13;;;5.10;85.10;;;2.92;100.00;96019.66;4971711;28;20200;-67
2021/11/13 05:23:02;;;;;;;44.13;26.15;;;5.10;85.50;;;2.90;100.00;96011.19;4956637;28;20035;-65
2021/11/13 05:25:28;;;;;;;51.42;22.00;;;5.10;85.60;;;2.90;100.00;96025.97;4976235;28;20038;-67
2021/11/13 05:27:54;;;;;;;42.58;22.25;;;5.00;85.50;;;2.88;100.00;96014.91;4993519;28;20502;-67
2021/11/13 05:30:21;;;;;;;36.63;20.73;;;5.00;85.70;;;2.88;100.00;96018.31;4986679;28;20042;-68
2021/11/13 05:32:46;;;;;;;42.08;21.58;;;5.10;85.60;;;2.91;100.00;96022.41;4987972;28;20035;-65
2021/11/13 05:35:12;;;;;;;44.78;21.83;;;5.10;85.70;;;2.89;100.00;96019.97;4974514;28;20065;-67
2021/11/13 05:37:39;;;;;;;39.03;22.27;;;5.10;85.70;;;2.89;100.00;96022.56;4937602;28;20093;-67
2021/11/13 05:40:06;;;;;;;40.28;22.02;;;5.10;85.70;;;2.89;100.00;96027.75;4968980;28;20035;-67
2021/11/13 05:42:32;;;;;;;38.17;22.85;;;5.10;85.60;;;2.90;100.00;96028.56;4953655;28;20519;-67
2021/11/13 05:44:58;;;;;;;36.40;21.95;;;5.10;85.70;;;2.91;100.00;96027.59;4953350;28;20127;-67
2021/11/13 05:47:25;;;;;;;55.28;21.83;;;5.10;85.80;;;2.91;100.00;96017.22;4937568;28;20045;-67
2021/11/13 05:49:51;;;;;;;65.97;23.35;;;5.10;85.70;;;2.88;100.00;96022.69;4937578;28;20380;-67
2021/11/13 05:52:17;;;;;;;57.80;21.58;;;4.90;85.90;;;2.84;100.00;96027.38;4937510;28;20027;-67
2021/11/13 05:54:43;;;;;;;52.70;21.77;;;4.80;86.20;;;2.82;100.00;96018.91;4979361;28;20050;-67
2021/11/13 05:57:09;;;;;;;45.78;23.67;;;4.80;86.30;;;2.78;100.00;96016.75;4988551;28;20538;-67
2021/11/13 05:59:34;;;;;;;93.00;22.00;;;4.80;86.50;;;2.73;100.00;96019.78;4956157;28;20034;-66
2021/11/13 06:02:00;;;;;;;73.55;24.55;;;4.70;86.70;;;2.67;100.00;96015.13;4972232;28;20089;-67
2021/11/13 06:04:26;;;;;;;53.42;24.45;;;4.60;87.30;;;2.65;100.00;96022.25;4988699;28;20045;-67
2021/11/13 06:06:52;;;;;;;50.38;22.90;;;4.60;87.30;;;2.65;100.00;96027.44;4956453;28;20042;-66
2021/11/13 06:09:17;;;;;;;63.33;23.35;;;4.70;87.10;;;2.60;100.00;96030.47;4971970;28;20039;-67
2021/11/13 06:11:43;;;;;;;56.25;23.85;;;4.50;86.70;;;2.54;100.00;96022.44;5005008;28;20038;-66
2021/11/13 06:14:09;;;;;;;43.60;24.77;;;4.40;87.40;;;2.50;100.00;96024.50;5004994;28;20053;-67
2021/11/13 06:16:34;;;;;;;52.53;22.17;;;4.40;87.50;;;2.49;100.00;96027.19;4992332;28;20046;-67
2021/11/13 06:19:00;;;;;;;41.10;23.27;;;4.40;87.40;;;2.51;100.00;96027.91;5008780;28;20093;-67
2021/11/13 06:21:26;;;;;;;43.35;21.95;;;4.60;87.20;;;2.49;100.00;96027.19;5008862;28;20121;-67
2021/11/13 06:23:52;;;;;;;60.05;23.00;;;4.40;87.20;;;2.48;100.00;96028.97;4968831;28;20050;-67
2021/11/13 06:26:18;;;;;;;42.92;22.02;;;4.40;86.90;;;2.49;100.00;96029.78;4962724;28;20113;-68
2021/11/13 06:28:44;;;;;;;57.97;22.58;;;4.60;87.10;;;2.47;100.00;96029.94;4976158;28;20049;-66
2021/11/13 06:31:10;;;;;;;69.45;22.50;;;4.40;87.20;;;2.44;100.00;96035.41;4975934;28;20514;-67
2021/11/13 06:33:36;;;;;;;45.45;24.50;;;4.40;87.40;;;2.40;100.00;96040.06;4959509;28;20066;-66
2021/11/13 06:36:02;;;;;;;42.63;23.00;;;4.30;87.50;;;2.39;100.00;96037.63;4975722;28;20029;-67
2021/11/13 06:38:28;;;;;;;40.92;22.90;;;4.20;87.30;;;2.33;100.00;96033.81;4975570;28;20085;-67
2021/11/13 06:40:53;;;;;;;41.03;21.90;;;4.10;87.40;;;2.34;100.00;96034.63;4975727;28;20046;-67
2021/11/13 06:43:19;;;;;;;44.63;24.20;;;4.40;87.50;;;2.38;100.00;96035.97;4975660;28;20069;-67
2021/11/13 06:45:45;;;;;;;46.38;28.10;;;4.40;87.50;;;2.40;100.00;96040.06;4992035;28;20486;-67
2021/11/13 06:48:11;;;;;;;49.20;25.30;;;4.50;87.60;;;2.44;100.00;96046.63;4959648;28;20034;-67
2021/11/13 06:50:37;;;;;;;39.78;24.02;;;4.60;87.00;;;2.49;100.00;96050.56;4959350;28;20169;-66
2021/11/13 06:53:03;;;;;;;54.78;23.10;;;4.60;86.90;;;2.52;100.00;96053.72;4943639;28;20038;-67
2021/11/13 06:55:29;;;;;;;59.38;22.60;;;4.60;86.70;;;2.54;100.00;96056.19;4975398;28;20038;-66
2021/11/13 06:57:55;;;;;;;71.60;41.75;;;4.60;86.80;;;2.56;100.00;96059.44;4991793;28;20034;-67
2021/11/13 07:00:21;;;;;;;67.25;34.05;;;4.70;86.80;;;2.59;100.00;96056.56;4991126;28;20044;-68
2021/11/13 07:02:46;;;;;;;66.35;34.25;;;4.70;86.50;;;2.59;100.00;96059.97;5008194;28;20498;-67
2021/11/13 07:05:12;;;;;;;53.67;31.20;;;4.70;86.70;;;2.56;100.00;96052.47;4984885;28;20042;-67
2021/11/13 07:07:38;;;;;;;45.83;26.60;;;4.60;86.90;;;2.51;100.00;96054.69;4958729;28;20474;-67
2021/11/13 07:10:07;;;;;;;38.88;23.63;;;4.40;86.60;;;2.51;100.00;96059.06;5007156;28;20026;-67
2021/11/13 07:12:33;;;;;;;42.40;20.70;;;4.50;86.60;;;2.47;100.00;96045.50;4991188;28;20034;-67
2021/11/13 07:14:59;;;;;;;45.00;24.00;;;4.20;86.60;;;2.42;100.00;96053.72;4991536;28;20057;-65
2021/11/13 07:17:25;;;;;;;70.45;24.10;;;4.40;87.00;;;2.40;100.00;96050.47;4990652;28;20050;-66
2021/11/13 07:19:51;;;;;;;61.55;26.23;;;4.20;87.10;;;2.37;100.00;96050.75;4972594;28;20085;-67
2021/11/13 07:22:17;;;;;;;57.20;28.55;;;4.20;87.70;;;2.34;100.00;96053.63;5007636;28;20034;-67
2021/11/13 07:24:43;;;;;;;67.35;31.10;;;4.20;88.00;;;2.32;100.00;96045.16;5007305;28;20049;-67
2021/11/13 07:27:09;;;;;;;50.72;26.95;;;4.20;88.00;;;2.31;100.00;96046.13;4990965;28;20032;-67
2021/11/13 07:29:43;;;;;;;47.85;25.52;;;4.10;88.40;;;2.34;100.00;96039.81;4979124;28;20581;-68
2021/11/13 07:32:09;;;;;;;42.00;23.67;;;4.30;87.70;;;2.34;100.00;96040.63;4986957;28;20503;-68
2021/11/13 07:34:34;;;;;;;36.67;21.42;;;4.20;87.30;;;2.33;100.00;96040.78;4962444;28;20126;-67
2021/11/13 07:37:00;;;;;;;44.45;20.38;;;4.20;87.20;;;2.30;100.00;96038.47;4990913;28;20051;-67
2021/11/13 07:39:26;;;;;;;37.92;20.63;;;4.10;86.90;;;2.25;100.00;96020.69;4970812;28;20033;-67
2021/11/13 07:41:52;;;;;;;38.28;22.45;;;4.10;87.60;;;2.25;100.00;96041.47;4954374;28;20137;-68
2021/11/13 07:44:17;;;;;;;38.55;21.55;;;4.10;87.70;;;2.24;100.00;96032.03;4990550;28;20034;-68
2021/11/13 07:46:43;;;;;;;33.20;20.08;;;4.10;87.60;;;2.24;100.00;96039.81;4991181;28;20510;-67
2021/11/13 07:49:10;;;;;;;35.55;21.48;;;4.10;87.60;;;2.27;100.00;96029.19;4973952;28;20034;-67
2021/11/13 07:51:36;;;;;;;37.47;23.38;;;4.30;87.40;;;2.31;100.00;96035.72;4958179;28;20041;-68
2021/11/13 07:54:02;;;;;;;33.70;20.67;;;4.30;87.30;;;2.33;100.00;96038.19;4940813;28;20564;-69
2021/11/13 07:56:28;;;;;;;32.83;20.75;;;4.30;87.10;;;2.34;100.00;96051.03;4962499;28;20042;-67
2021/11/13 07:58:54;;;;;;;36.25;22.10;;;4.30;87.20;;;2.40;100.00;96047.84;4954881;28;20057;-65
2021/11/13 08:01:20;;;;;;;36.22;21.90;;;4.50;87.40;;;2.49;100.00;96043.63;4981689;28;20591;-68
2021/11/13 08:03:46;;;;;;;36.28;21.77;;;4.70;87.00;;;2.58;100.00;96049.75;4973780;28;20061;-66
2021/11/13 08:06:11;;;;;;;31.30;19.27;;;4.80;86.80;;;2.65;100.00;96054.22;4972132;28;20073;-66
2021/11/13 08:08:38;;;;;;;28.88;19.08;;;4.90;86.00;;;2.72;100.00;96057.09;4974055;28;20121;-66
2021/11/13 08:11:04;;;;;;;26.67;17.75;;;4.90;86.00;;;2.78;100.00;96053.09;4973491;28;20049;-67
2021/11/13 08:13:29;;;;;;;28.65;18.48;;;5.00;86.00;;;2.86;100.00;96053.19;4961459;28;20049;-67
2021/11/13 08:15:55;;;;;;;27.00;17.20;;;5.10;85.30;;;2.90;100.00;96063.16;4969429;28;20057;-66
2021/11/13 08:18:21;;;;;;;25.77;18.13;;;5.20;85.20;;;2.97;100.00;96063.44;4993271;28;20135;-67
2021/11/13 08:20:47;;;;;;;25.42;17.98;;;5.30;85.20;;;3.04;100.00;96065.31;4975439;28;20042;-67
2021/11/13 08:23:14;;;;;;;25.10;16.98;;;5.40;84.70;;;3.11;100.00;96080.31;4973605;28;20045;-66
2021/11/13 08:25:41;;;;;;;24.58;17.02;;;5.30;84.70;;;3.17;100.00;96077.13;5008877;28;20133;-67
2021/11/13 08:28:07;;;;;;;25.88;17.40;;;5.50;84.50;;;3.24;100.00;96078.22;4978522;28;20038;-67
2021/11/13 08:30:33;;;;;;;27.90;17.80;;;5.50;84.40;;;3.30;100.00;96085.44;4941013;28;20465;-67
2021/11/13 08:32:59;;;;;;;26.27;17.27;;;5.50;84.10;;;3.32;100.00;96075.69;4942888;28;20397;-67
2021/11/13 08:35:25;;;;;;;23.67;17.10;;;5.40;84.30;;;3.35;100.00;96083.22;4974519;28;20046;-65
2021/11/13 08:37:51;;;;;;;26.98;19.65;;;5.40;84.00;;;3.35;100.00;96083.22;4957031;28;20126;-68
2021/11/13 08:40:17;;;;;;;28.38;19.08;;;5.30;83.90;;;3.38;100.00;96077.72;4996620;28;20038;-66
2021/11/13 08:42:43;;;;;;;23.00;17.08;;;5.40;84.10;;;3.40;100.00;96070.63;4962830;28;20042;-66
2021/11/13 08:45:10;;;;;;;24.17;17.05;;;5.40;83.70;;;3.39;100.00;96074.16;4991010;28;20038;-66
2021/11/13 08:47:36;;;;;;;21.77;16.58;;;5.40;83.70;;;3.40;100.00;96075.81;4989801;28;20030;-66
2021/11/13 08:50:03;;;;;;;22.40;16.27;;;5.40;83.80;;;3.44;100.00;96071.13;4957079;28;20528;-66
2021/11/13 08:52:29;;;;;;;20.25;15.60;;;5.50;83.20;;;3.48;99.80;96070.69;4957816;28;20521;-66
2021/11/13 08:54:54;;;;;;;20.50;16.23;;;5.60;82.80;;;3.52;99.14;96066.00;4939328;28;20043;-65
2021/11/13 08:57:20;;;;;;;21.70;16.20;;;5.70;82.30;;;3.58;99.47;96068.84;4977809;28;20034;-69
2021/11/13 08:59:46;;;;;;;20.45;15.57;;;5.80;81.80;;;3.63;98.68;96071.84;4967728;28;20026;-69
2021/11/13 09:02:19;;;;;;;19.70;14.48;;;6.00;81.80;;;3.71;98.52;96067.69;4975841;28;20046;-66
2021/11/13 09:04:45;;;;;;;19.52;13.45;;;6.10;81.10;;;3.82;98.60;96070.06;4943970;28;20037;-68
2021/11/13 09:07:11;;;;;;;16.88;12.73;;;6.30;80.40;;;3.91;98.26;96063.97;4964198;28;20037;-70
2021/11/13 09:09:37;;;;;;;16.02;12.93;;;6.40;79.70;;;4.02;97.01;96055.94;4984674;28;20493;-68
2021/11/13 09:12:11;;;;;;;15.25;12.52;;;6.50;79.00;;;4.13;97.21;96053.13;4970000;28;20057;-68
2021/11/13 09:14:37;;;;;;;20.83;17.48;;;6.70;79.20;;;4.26;96.56;96037.91;4977545;28;20136;-69
2021/11/13 09:17:02;;;;;;;22.23;17.98;;;6.90;78.50;;;4.40;95.86;96043.56;4962861;28;20441;-68
2021/11/13 09:19:28;;;;;;;16.60;14.15;;;7.10;77.40;;;4.53;95.60;96043.97;4960024;28;20117;-69
2021/11/13 09:21:54;;;;;;;14.95;13.35;;;7.20;77.30;;;4.63;95.45;96041.25;4968903;28;20022;-68
2021/11/13 09:24:21;;;;;;;14.98;12.25;;;7.20;77.00;;;4.69;94.63;96038.84;4946102;28;20038;-72
2021/11/13 09:26:47;;;;;;;15.40;13.40;;;7.20;76.90;;;4.75;94.38;96043.47;4961239;28;20413;-72
2021/11/13 09:29:13;;;;;;;16.58;13.65;;;7.20;77.30;;;4.81;94.44;96044.63;4993743;28;20552;-71
2021/11/13 09:31:41;;;;;;;17.05;13.98;;;7.30;77.50;;;4.86;93.98;96045.81;4982479;28;20364;-72
2021/11/13 09:34:14;;;;;;;15.60;12.98;;;7.20;77.10;;;4.90;93.13;96036.69;4983193;28;20096;-72
2021/11/13 09:36:40;;;;;;;16.08;14.35;;;7.20;77.50;;;4.98;93.31;96045.50;4970602;28;20038;-72
2021/11/13 09:39:06;;;;;;;17.02;13.32;;;7.40;77.30;;;5.00;93.54;96041.00;4988586;28;20654;-72
2021/11/13 09:41:33;;;;;;;16.60;13.82;;;7.40;76.50;;;5.02;92.71;96045.06;4972098;28;20057;-71
2021/11/13 09:43:59;;;;;;;15.20;13.38;;;7.40;77.00;;;5.06;93.10;96045.56;4943340;28;20039;-71
2021/11/13 09:46:24;;;;;;;14.98;13.38;;;7.50;76.80;;;5.09;92.71;96047.88;4994186;28;20053;-72
2021/11/13 09:48:52;;;;;;;16.77;14.98;;;7.50;76.70;;;5.14;92.33;96043.00;4985064;28;20089;-71
2021/11/13 09:51:19;;;;;;;15.50;13.85;;;7.60;76.30;;;5.19;92.09;96035.50;4997015;28;20120;-72
2021/11/13 09:53:45;;;;;;;18.88;15.15;;;7.60;76.00;;;5.22;91.80;96037.84;4995088;28;20077;-71
2021/11/13 09:56:11;;;;;;;16.70;13.85;;;7.60;76.90;;;5.25;91.43;96024.47;4979907;28;20029;-72
2021/11/13 09:58:37;;;;;;;16.90;13.98;;;7.70;76.10;;;5.32;91.58;96030.69;4946452;28;20031;-71
2021/11/13 10:01:03;;;;;;;15.43;13.27;;;7.80;75.50;;;5.38;91.42;96035.25;4991692;28;20034;-72
2021/11/13 10:03:29;;;;;;;16.70;12.93;;;7.80;75.60;;;5.44;91.18;96026.81;4966123;28;20086;-72
2021/11/13 10:06:00;;;;;;;18.73;13.45;;;8.00;74.80;;;5.49;89.84;96032.38;4968688;28;20387;-72
2021/11/13 10:08:26;;;;;;;15.80;13.80;;;8.00;74.30;;;5.53;89.85;96038.09;4973276;28;20031;-72